Time;durP1;ratioP1;P1;durP2;ratioP2;P2;SDS_P1;SDS_P2;PMS_P1;PMS_P2;Temp;Humidity;BMP_temperature;BMP_pressure;BME280_temperature;BME280_humidity;BME280_pressure;Samples;Min_cycle;Max_cycle;Signal;HPM_P1;HPM_P2
2022/07/01 00:02:05;;;;;;;0.40;0.30;;;15.20;99.90;;;;;;4974979;28;20811;-79
2022/07/01 00:04:32;;;;;;;0.40;0.30;;;15.10;99.90;;;;;;4974832;28;20964;-79
2022/07/01 00:06:59;;;;;;;0.40;0.30;;;15.10;99.90;;;;;;4974407;28;21016;-79
2022/07/01 00:09:27;;;;;;;0.30;0.30;;;15.10;99.90;;;;;;4974610;28;20489;-79
2022/07/01 00:11:53;;;;;;;0.30;0.23;;;15.00;99.90;;;;;;4974811;28;20476;-79
2022/07/01 00:14:22;;;;;;;0.30;0.30;;;14.90;99.90;;;;;;4974797;28;20446;-79
2022/07/01 00:16:49;;;;;;;0.30;0.20;;;14.90;99.90;;;;;;4974666;28;20470;-79
2022/07/01 00:19:17;;;;;;;0.30;0.30;;;14.80;99.90;;;;;;4974578;28;20453;-79
2022/07/01 00:21:44;;;;;;;0.30;0.30;;;14.80;99.90;;;;;;4974415;28;20964;-79
2022/07/01 00:24:11;;;;;;;0.30;0.30;;;14.80;99.90;;;;;;4974679;28;20449;-79
2022/07/01 00:26:38;;;;;;;0.40;0.30;;;14.70;99.90;;;;;;4974496;28;20511;-79
2022/07/01 00:29:04;;;;;;;0.30;0.30;;;14.70;99.90;;;;;;4974647;28;20451;-79
2022/07/01 00:31:31;;;;;;;0.30;0.20;;;14.60;99.90;;;;;;4974565;28;20461;-79
2022/07/01 00:33:58;;;;;;;0.30;0.30;;;14.60;99.90;;;;;;4974179;28;20967;-79
2022/07/01 00:36:26;;;;;;;0.30;0.20;;;14.60;99.90;;;;;;4974430;28;20477;-79
2022/07/01 00:38:52;;;;;;;0.30;0.30;;;14.60;99.90;;;;;;4974421;28;20453;-79
2022/07/01 00:41:19;;;;;;;0.90;0.40;;;14.50;99.90;;;;;;4974432;28;20476;-79
2022/07/01 00:43:46;;;;;;;0.30;0.20;;;14.50;99.90;;;;;;4974111;28;20453;-79
2022/07/01 00:46:13;;;;;;;0.30;0.20;;;14.50;99.90;;;;;;4974000;28;20489;-79
2022/07/01 00:48:40;;;;;;;0.30;0.30;;;14.50;99.90;;;;;;4974756;28;20457;-79
2022/07/01 00:51:07;;;;;;;0.30;0.30;;;14.50;99.90;;;;;;4974011;28;20847;-79
2022/07/01 00:53:36;;;;;;;0.30;0.27;;;14.50;99.90;;;;;;4974328;28;20464;-79
2022/07/01 00:56:03;;;;;;;0.30;0.30;;;14.50;99.90;;;;;;4976400;28;20469;-79
2022/07/01 00:58:30;;;;;;;0.40;0.30;;;14.60;99.90;;;;;;4978194;28;20438;-79
2022/07/01 01:00:58;;;;;;;0.30;0.30;;;14.50;99.90;;;;;;4977833;28;20945;-79
2022/07/01 01:03:25;;;;;;;0.30;0.20;;;14.50;99.90;;;;;;4978078;28;20476;-79
2022/07/01 01:05:54;;;;;;;0.30;0.20;;;14.50;99.90;;;;;;4978234;28;20485;-79
2022/07/01 01:08:21;;;;;;;0.30;0.20;;;14.50;99.90;;;;;;4977579;28;20453;-79
2022/07/01 01:10:50;;;;;;;0.40;0.30;;;14.50;99.90;;;;;;4977722;28;20446;-79
2022/07/01 01:13:16;;;;;;;0.30;0.30;;;14.50;99.90;;;;;;4977968;28;20436;-79
2022/07/01 01:15:43;;;;;;;0.40;0.40;;;14.50;99.90;;;;;;4978031;28;20469;-79
2022/07/01 01:18:10;;;;;;;0.30;0.20;;;14.50;99.90;;;;;;4977839;28;20456;-79
2022/07/01 01:20:38;;;;;;;0.40;0.30;;;14.50;99.90;;;;;;4977771;28;20477;-79
2022/07/01 01:23:06;;;;;;;0.30;0.30;;;14.60;99.90;;;;;;4977774;28;20591;-79
2022/07/01 01:25:32;;;;;;;0.30;0.30;;;14.60;99.90;;;;;;4977291;28;20496;-79
2022/07/01 01:27:59;;;;;;;0.30;0.30;;;14.50;99.90;;;;;;4977684;28;20449;-79
2022/07/01 01:30:26;;;;;;;0.30;0.30;;;14.50;99.90;;;;;;4977622;28;20454;-79
2022/07/01 01:32:53;;;;;;;0.30;0.20;;;14.50;99.90;;;;;;4977602;28;20449;-79
2022/07/01 01:35:20;;;;;;;0.30;0.20;;;14.50;99.90;;;;;;4977460;28;20507;-79
2022/07/01 01:37:49;;;;;;;0.40;0.30;;;14.50;99.90;;;;;;4977511;28;20449;-79
2022/07/01 01:40:16;;;;;;;0.30;0.30;;;14.50;99.90;;;;;;4977444;28;20531;-79
2022/07/01 01:42:43;;;;;;;0.30;0.30;;;14.50;99.90;;;;;;4977123;28;20960;-79
2022/07/01 01:45:11;;;;;;;0.40;0.30;;;14.50;99.90;;;;;;4977265;28;20461;-79
2022/07/01 01:47:37;;;;;;;0.83;0.30;;;14.40;99.90;;;;;;4976918;28;21000;-79
2022/07/01 01:50:05;;;;;;;0.30;0.30;;;14.40;99.90;;;;;;4976983;28;20954;-79
2022/07/01 01:52:32;;;;;;;0.30;0.30;;;14.40;99.90;;;;;;4976960;28;20980;-79
2022/07/01 01:55:00;;;;;;;0.30;0.20;;;14.40;99.90;;;;;;4976941;28;20965;-79
2022/07/01 01:57:27;;;;;;;0.30;0.20;;;14.40;99.90;;;;;;4976994;28;20473;-79
2022/07/01 01:59:53;;;;;;;0.30;0.20;;;14.30;99.90;;;;;;4977258;28;20453;-79
2022/07/01 02:02:20;;;;;;;0.30;0.30;;;14.30;99.90;;;;;;4977028;28;20449;-79
2022/07/01 02:04:47;;;;;;;0.40;0.30;;;14.30;99.90;;;;;;4976993;28;20453;-79
2022/07/01 02:07:14;;;;;;;0.40;0.30;;;14.40;99.90;;;;;;4976419;28;20481;-79
2022/07/01 02:09:40;;;;;;;0.40;0.30;;;14.30;99.90;;;;;;4976615;28;20992;-79
2022/07/01 02:12:09;;;;;;;0.30;0.30;;;14.30;99.90;;;;;;4976917;28;20457;-79
2022/07/01 02:14:36;;;;;;;0.30;0.30;;;14.30;99.90;;;;;;4976555;28;20998;-79
2022/07/01 02:17:03;;;;;;;0.30;0.30;;;14.30;99.90;;;;;;4976762;28;20476;-79
2022/07/01 02:19:29;;;;;;;0.40;0.30;;;14.30;99.90;;;;;;4976785;28;20457;-79
2022/07/01 02:21:56;;;;;;;0.30;0.20;;;14.30;99.90;;;;;;4976720;28;20453;-79
2022/07/01 02:24:23;;;;;;;0.30;0.30;;;14.30;99.90;;;;;;4976312;28;20453;-79
2022/07/01 02:26:49;;;;;;;0.50;0.30;;;14.30;99.90;;;;;;4976378;28;20504;-79
2022/07/01 02:29:17;;;;;;;0.40;0.30;;;14.30;99.90;;;;;;4976565;28;20464;-79
2022/07/01 02:31:44;;;;;;;0.37;0.30;;;14.30;99.90;;;;;;4976537;28;20456;-79
2022/07/01 02:34:11;;;;;;;0.30;0.30;;;14.30;99.90;;;;;;4976472;28;20821;-79
2022/07/01 02:36:37;;;;;;;0.60;0.30;;;14.30;99.90;;;;;;4976384;28;20545;-79
2022/07/01 02:39:04;;;;;;;0.40;0.33;;;14.20;99.90;;;;;;4976183;28;20449;-79
2022/07/01 02:41:31;;;;;;;0.30;0.20;;;14.20;99.90;;;;;;4976352;28;20458;-79
2022/07/01 02:43:58;;;;;;;0.40;0.30;;;14.20;99.90;;;;;;4976314;28;20450;-79
2022/07/01 02:46:26;;;;;;;0.50;0.30;;;14.30;99.90;;;;;;4976120;28;20856;-79
2022/07/01 02:48:52;;;;;;;0.30;0.20;;;14.20;99.90;;;;;;4976207;28;20449;-79
2022/07/01 02:51:19;;;;;;;0.40;0.30;;;14.20;99.90;;;;;;4975807;28;20820;-79
2022/07/01 02:53:46;;;;;;;0.40;0.30;;;14.20;99.90;;;;;;4976140;28;20464;-79
2022/07/01 02:56:12;;;;;;;0.40;0.30;;;14.20;99.90;;;;;;4975799;28;20985;-79
2022/07/01 02:58:39;;;;;;;0.50;0.50;;;14.20;99.90;;;;;;4976007;28;20549;-79
2022/07/01 03:01:06;;;;;;;0.40;0.40;;;14.10;99.90;;;;;;4975995;28;20456;-79
2022/07/01 03:03:34;;;;;;;0.30;0.30;;;14.20;99.90;;;;;;4975632;28;20452;-79
2022/07/01 03:06:01;;;;;;;0.77;0.60;;;14.20;99.90;;;;;;4975723;28;20465;-79
2022/07/01 03:08:28;;;;;;;0.30;0.30;;;14.10;99.90;;;;;;4975625;28;20492;-79
2022/07/01 03:10:54;;;;;;;0.40;0.30;;;14.10;99.90;;;;;;4975851;28;20437;-79
2022/07/01 03:13:21;;;;;;;0.30;0.30;;;14.20;99.90;;;;;;4975464;28;20453;-79
2022/07/01 03:15:48;;;;;;;0.40;0.37;;;14.20;99.90;;;;;;4975570;28;20473;-79
2022/07/01 03:18:14;;;;;;;0.30;0.30;;;14.10;99.90;;;;;;4975179;28;20447;-79
2022/07/01 03:20:43;;;;;;;0.30;0.30;;;14.10;99.90;;;;;;4975641;28;20453;-79
2022/07/01 03:23:09;;;;;;;0.30;0.23;;;14.20;99.90;;;;;;4975251;28;20816;-79
2022/07/01 03:25:36;;;;;;;0.30;0.30;;;14.20;99.90;;;;;;4975394;28;20476;-79
2022/07/01 03:28:04;;;;;;;0.50;0.30;;;14.20;99.90;;;;;;4975406;28;20485;-79
2022/07/01 03:30:31;;;;;;;0.77;0.47;;;14.20;99.90;;;;;;4975419;28;20504;-79
2022/07/01 03:32:58;;;;;;;0.40;0.30;;;14.20;99.90;;;;;;4975432;28;20499;-79
2022/07/01 03:35:39;;;;;;;0.30;0.30;;;14.20;99.90;;;;;;4974930;28;20953;-79
2022/07/01 03:38:07;;;;;;;0.30;0.30;;;14.20;99.90;;;;;;4975085;28;20924;-79
2022/07/01 03:40:34;;;;;;;0.30;0.30;;;14.20;99.90;;;;;;4974920;28;20968;-79
2022/07/01 03:43:02;;;;;;;0.30;0.30;;;14.20;99.90;;;;;;4975477;28;20449;-79
2022/07/01 03:45:28;;;;;;;0.30;0.23;;;14.10;99.90;;;;;;4975119;28;20476;-79
2022/07/01 03:47:55;;;;;;;0.30;0.30;;;14.10;99.90;;;;;;4975206;28;20923;-79
2022/07/01 03:50:23;;;;;;;0.40;0.30;;;14.10;99.90;;;;;;4974760;28;20937;-79
2022/07/01 03:54:29;;;;;;;0.40;0.30;;;14.10;99.90;;;;;;4975014;28;20465;-79
2022/07/01 03:55:38;;;;;;;0.60;0.30;;;14.00;99.90;;;;;;4974411;28;20883;-79
2022/07/01 03:58:04;;;;;;;1.27;0.37;;;14.00;99.90;;;;;;4975003;28;20449;-79
2022/07/01 04:00:35;;;;;;;0.40;0.30;;;14.00;99.90;;;;;;4974884;28;20453;-79
2022/07/01 04:03:02;;;;;;;0.40;0.30;;;14.00;99.90;;;;;;4974944;28;20440;-79
2022/07/01 04:05:29;;;;;;;0.40;0.33;;;13.90;99.90;;;;;;4974812;28;20476;-79
2022/07/01 04:07:55;;;;;;;0.30;0.20;;;13.90;99.90;;;;;;4974765;28;20485;-79
2022/07/01 04:10:22;;;;;;;0.30;0.30;;;14.00;99.90;;;;;;4974618;28;20481;-79
2022/07/01 04:12:50;;;;;;;0.30;0.30;;;14.00;99.90;;;;;;4974762;28;20457;-79
2022/07/01 04:15:18;;;;;;;1.80;0.30;;;13.90;99.90;;;;;;4974648;28;20449;-79
2022/07/01 04:17:44;;;;;;;0.30;0.20;;;13.90;99.90;;;;;;4974732;28;20597;-79
2022/07/01 04:20:12;;;;;;;0.30;0.20;;;14.00;99.90;;;;;;4974617;28;20445;-79
2022/07/01 04:22:38;;;;;;;0.30;0.30;;;14.00;99.90;;;;;;4975119;28;20473;-79
2022/07/01 04:25:06;;;;;;;0.40;0.30;;;14.00;99.90;;;;;;4974824;28;20988;-79
2022/07/01 04:27:32;;;;;;;0.30;0.30;;;14.00;99.90;;;;;;4974215;28;20222;-79
2022/07/01 04:30:02;;;;;;;0.30;0.30;;;14.00;99.90;;;;;;4974236;28;20437;-79
2022/07/01 04:32:29;;;;;;;0.30;0.30;;;14.00;99.90;;;;;;4974509;28;20465;-79
2022/07/01 04:34:55;;;;;;;0.40;0.30;;;14.00;99.90;;;;;;4974457;28;20449;-79
2022/07/01 04:37:22;;;;;;;0.33;0.30;;;14.00;99.90;;;;;;4974169;28;20977;-79
2022/07/01 04:39:49;;;;;;;0.40;0.30;;;14.00;99.90;;;;;;4974438;28;20456;-79
2022/07/01 04:42:15;;;;;;;0.30;0.30;;;13.90;99.90;;;;;;4974679;28;20446;-79
2022/07/01 04:44:42;;;;;;;0.40;0.30;;;13.90;99.90;;;;;;4974375;28;20455;-79
2022/07/01 04:47:10;;;;;;;0.30;0.23;;;13.80;99.90;;;;;;4974270;28;20222;-79
2022/07/01 04:49:37;;;;;;;0.30;0.30;;;13.70;99.90;;;;;;4974356;28;20450;-79
2022/07/01 04:52:04;;;;;;;0.40;0.30;;;13.70;99.90;;;;;;4974062;28;20450;-79
2022/07/01 04:54:31;;;;;;;0.30;0.30;;;13.70;99.90;;;;;;4974512;28;20445;-79
2022/07/01 04:56:57;;;;;;;0.30;0.20;;;13.70;99.90;;;;;;4974167;28;20469;-79
2022/07/01 04:59:24;;;;;;;0.40;0.30;;;13.80;99.90;;;;;;4974275;28;20449;-79
2022/07/01 05:01:51;;;;;;;0.30;0.30;;;13.80;99.90;;;;;;4974292;28;20813;-79
2022/07/01 05:04:19;;;;;;;0.50;0.30;;;13.80;99.90;;;;;;4974174;28;20868;-79
2022/07/01 05:06:47;;;;;;;0.30;0.30;;;13.90;99.90;;;;;;4974028;28;20493;-79
2022/07/01 05:09:13;;;;;;;0.30;0.20;;;13.90;99.90;;;;;;4973957;28;20837;-79
2022/07/01 05:11:40;;;;;;;0.30;0.20;;;13.90;99.90;;;;;;4973811;28;20829;-79
2022/07/01 05:14:07;;;;;;;0.40;0.30;;;13.90;99.90;;;;;;4973887;28;20445;-79
2022/07/01 05:16:35;;;;;;;0.60;0.37;;;13.90;99.90;;;;;;4973817;28;20996;-79
2022/07/01 05:21:58;;;;;;;0.30;0.30;;;13.90;99.90;;;;;;4973895;28;20504;-79
2022/07/01 05:24:30;;;;;;;0.30;0.30;;;13.90;99.90;;;;;;4973805;28;20448;-79
2022/07/01 05:26:57;;;;;;;0.30;0.30;;;13.90;99.90;;;;;;4973875;28;20524;-79
2022/07/01 05:29:24;;;;;;;0.30;0.30;;;13.90;99.90;;;;;;4974028;28;20449;-79
2022/07/01 05:31:50;;;;;;;0.30;0.30;;;13.90;99.90;;;;;;4973996;28;20449;-79
2022/07/01 05:34:17;;;;;;;0.40;0.30;;;13.90;99.90;;;;;;4973883;28;20453;-79
2022/07/01 05:36:44;;;;;;;0.30;0.20;;;13.90;99.90;;;;;;4973842;28;20465;-79
2022/07/01 05:39:12;;;;;;;0.30;0.30;;;13.90;99.90;;;;;;4973591;28;20952;-79
2022/07/01 05:41:39;;;;;;;0.30;0.30;;;13.90;99.90;;;;;;4974894;28;20438;-79
2022/07/01 05:44:06;;;;;;;0.30;0.30;;;13.90;99.90;;;;;;4977355;28;20839;-79
2022/07/01 05:46:33;;;;;;;0.30;0.30;;;13.90;99.90;;;;;;4977241;28;20496;-79
2022/07/01 05:49:00;;;;;;;0.30;0.30;;;13.90;99.90;;;;;;4976938;28;21008;-79
2022/07/01 05:51:27;;;;;;;0.30;0.20;;;13.80;99.90;;;;;;4977272;28;20457;-79
2022/07/01 05:53:53;;;;;;;0.30;0.20;;;13.80;99.90;;;;;;4976958;28;20940;-79
2022/07/01 05:56:22;;;;;;;0.30;0.30;;;13.80;99.90;;;;;;4976697;28;20814;-79
2022/07/01 05:58:48;;;;;;;0.37;0.27;;;13.70;99.90;;;;;;4977037;28;20449;-79
2022/07/01 06:01:15;;;;;;;0.30;0.20;;;13.70;99.90;;;;;;4976739;28;20948;-79
2022/07/01 06:03:42;;;;;;;0.30;0.20;;;13.70;99.90;;;;;;4977036;28;20453;-79
2022/07/01 06:06:09;;;;;;;0.30;0.30;;;13.80;99.90;;;;;;4976930;28;20469;-79
2022/07/01 06:08:36;;;;;;;0.30;0.30;;;13.80;99.90;;;;;;4976697;28;20501;-79
2022/07/01 06:11:03;;;;;;;0.30;0.20;;;13.80;99.90;;;;;;4976928;28;20787;-79
2022/07/01 06:13:31;;;;;;;0.30;0.30;;;13.80;99.90;;;;;;4976859;28;20895;-79
2022/07/01 06:15:59;;;;;;;0.60;0.30;;;13.90;99.90;;;;;;4976413;28;20998;-79
2022/07/01 06:18:26;;;;;;;0.30;0.20;;;13.90;99.90;;;;;;4976754;28;20533;-79
2022/07/01 06:20:53;;;;;;;0.50;0.30;;;13.90;99.90;;;;;;4976385;28;20822;-79
2022/07/01 06:23:20;;;;;;;0.30;0.30;;;13.90;99.90;;;;;;4976912;28;20456;-79
2022/07/01 06:25:47;;;;;;;0.30;0.20;;;13.90;99.90;;;;;;4977122;28;20480;-79
2022/07/01 06:28:14;;;;;;;0.30;0.30;;;13.90;99.90;;;;;;4976528;28;20580;-79
2022/07/01 06:30:43;;;;;;;0.30;0.20;;;13.90;99.90;;;;;;4976556;28;20445;-79
2022/07/01 06:33:12;;;;;;;0.30;0.20;;;13.90;99.90;;;;;;4976569;28;20453;-79
2022/07/01 06:35:38;;;;;;;0.73;0.30;;;14.00;99.90;;;;;;4976441;28;20524;-79
2022/07/01 06:38:05;;;;;;;0.30;0.30;;;14.00;99.90;;;;;;4977273;28;20460;-79
2022/07/01 06:40:32;;;;;;;0.40;0.30;;;14.00;99.90;;;;;;4976662;28;20929;-79
2022/07/01 06:42:59;;;;;;;0.30;0.30;;;13.90;99.90;;;;;;4976187;28;20461;-79
2022/07/01 06:45:25;;;;;;;0.40;0.30;;;13.90;99.90;;;;;;4976549;28;20456;-79
2022/07/01 06:47:53;;;;;;;0.30;0.20;;;13.80;99.90;;;;;;4976398;28;20485;-79
2022/07/01 06:50:20;;;;;;;0.30;0.30;;;13.80;99.90;;;;;;4975958;28;20933;-79
2022/07/01 06:52:47;;;;;;;0.43;0.43;;;13.80;99.90;;;;;;4974783;28;20454;-79
2022/07/01 06:55:14;;;;;;;0.30;0.20;;;13.80;99.90;;;;;;4976811;28;20434;-79
2022/07/01 06:57:41;;;;;;;0.30;0.30;;;13.80;99.90;;;;;;4976097;28;20453;-79
2022/07/01 07:00:09;;;;;;;0.30;0.30;;;13.80;99.90;;;;;;4976854;28;20457;-79
2022/07/01 07:02:36;;;;;;;0.30;0.27;;;13.80;99.90;;;;;;4975985;28;20461;-79
2022/07/01 07:05:05;;;;;;;0.30;0.30;;;13.80;99.90;;;;;;4976159;28;20841;-79
2022/07/01 07:07:31;;;;;;;0.30;0.30;;;13.70;99.90;;;;;;4975850;28;20485;-79
2022/07/01 07:09:58;;;;;;;0.30;0.30;;;13.80;99.90;;;;;;4975492;28;20508;-79
2022/07/01 07:12:25;;;;;;;0.40;0.30;;;13.80;99.90;;;;;;4975738;28;20462;-79
2022/07/01 07:14:51;;;;;;;0.37;0.30;;;13.80;99.90;;;;;;4975719;28;20441;-79
2022/07/01 07:17:18;;;;;;;0.40;0.27;;;13.80;99.90;;;;;;4975637;28;20476;-79
2022/07/01 07:19:45;;;;;;;0.37;0.27;;;13.80;99.90;;;;;;4975834;28;20480;-79
2022/07/01 07:22:13;;;;;;;0.90;0.30;;;13.80;99.90;;;;;;4975889;28;20464;-79
2022/07/01 07:24:40;;;;;;;0.33;0.27;;;13.70;99.90;;;;;;4975625;28;20456;-79
2022/07/01 07:27:06;;;;;;;0.30;0.20;;;13.70;99.90;;;;;;4975025;28;20843;-79
2022/07/01 07:29:33;;;;;;;0.30;0.23;;;13.60;99.90;;;;;;4975332;28;20485;-79
2022/07/01 07:32:00;;;;;;;0.30;0.20;;;13.70;99.90;;;;;;4975400;28;20806;-79
2022/07/01 07:34:27;;;;;;;0.30;0.20;;;13.60;99.90;;;;;;4975380;28;20453;-79
2022/07/01 07:36:53;;;;;;;0.50;0.30;;;13.70;99.90;;;;;;4975226;28;20476;-79
2022/07/01 07:39:21;;;;;;;0.30;0.20;;;13.70;99.90;;;;;;4974981;28;20823;-79
2022/07/01 07:41:49;;;;;;;0.30;0.30;;;13.70;99.90;;;;;;4975488;28;20433;-79
2022/07/01 07:44:16;;;;;;;0.30;0.20;;;13.70;99.90;;;;;;4975194;28;20579;-79
2022/07/01 07:46:43;;;;;;;0.30;0.30;;;13.80;99.90;;;;;;4975208;28;20472;-79
2022/07/01 07:49:09;;;;;;;0.30;0.30;;;13.80;99.90;;;;;;4975111;28;20488;-79
2022/07/01 07:51:36;;;;;;;0.30;0.30;;;13.80;99.90;;;;;;4975117;28;20453;-79
2022/07/01 07:54:03;;;;;;;0.40;0.30;;;13.80;99.90;;;;;;4975029;28;20465;-81
2022/07/01 07:56:32;;;;;;;0.30;0.30;;;13.80;99.90;;;;;;4974940;28;20472;-80
2022/07/01 07:58:58;;;;;;;0.47;0.27;;;13.80;99.90;;;;;;4974995;28;20457;-79
2022/07/01 08:01:25;;;;;;;0.30;0.30;;;13.90;99.90;;;;;;4974925;28;20454;-79
2022/07/01 08:03:52;;;;;;;0.40;0.40;;;13.90;99.90;;;;;;4974855;28;20457;-79
2022/07/01 08:06:19;;;;;;;0.50;0.50;;;13.90;99.90;;;;;;4974804;28;20473;-79
2022/07/01 08:08:46;;;;;;;0.40;0.30;;;13.80;99.90;;;;;;4974537;28;20496;-79
2022/07/01 08:11:13;;;;;;;0.30;0.20;;;13.80;99.90;;;;;;4974863;28;20512;-79
2022/07/01 08:13:41;;;;;;;0.30;0.20;;;13.80;99.90;;;;;;4974770;28;20453;-79
2022/07/01 08:16:08;;;;;;;0.30;0.20;;;13.80;99.90;;;;;;4974712;28;20484;-79
2022/07/01 08:18:35;;;;;;;0.30;0.20;;;13.80;99.90;;;;;;4974425;28;20942;-79
2022/07/01 08:21:02;;;;;;;0.30;0.20;;;13.80;99.90;;;;;;4974398;28;20452;-79
2022/07/01 08:23:29;;;;;;;0.30;0.30;;;13.80;99.90;;;;;;4974694;28;20477;-79
2022/07/01 08:25:55;;;;;;;0.30;0.30;;;13.90;99.90;;;;;;4974525;28;20548;-80
2022/07/01 08:28:22;;;;;;;0.30;0.30;;;13.90;99.90;;;;;;4974575;28;20487;-79
2022/07/01 08:30:50;;;;;;;0.40;0.30;;;14.00;99.90;;;;;;4974573;28;20449;-83
2022/07/01 08:33:17;;;;;;;0.30;0.30;;;14.00;99.90;;;;;;4974564;28;20445;-80
2022/07/01 08:35:44;;;;;;;0.30;0.30;;;14.10;99.90;;;;;;4974210;28;20465;-80
2022/07/01 08:38:10;;;;;;;0.30;0.30;;;14.00;99.90;;;;;;4974538;28;20460;-80
2022/07/01 08:40:37;;;;;;;0.30;0.30;;;13.90;99.90;;;;;;4974523;28;20473;-81
2022/07/01 08:43:06;;;;;;;0.40;0.30;;;14.00;99.90;;;;;;4974259;28;20440;-79
2022/07/01 08:45:34;;;;;;;0.30;0.27;;;14.00;99.90;;;;;;4974197;28;20472;-79
2022/07/01 08:48:03;;;;;;;0.40;0.30;;;14.00;99.90;;;;;;4974073;28;20834;-79
2022/07/01 08:50:31;;;;;;;0.40;0.30;;;14.10;99.90;;;;;;4974443;28;20449;-79
2022/07/01 08:52:58;;;;;;;0.50;0.30;;;14.00;99.90;;;;;;4974136;28;20457;-79
2022/07/01 08:55:25;;;;;;;0.30;0.30;;;14.00;99.90;;;;;;4974365;28;20433;-80
2022/07/01 08:57:52;;;;;;;0.30;0.30;;;14.00;99.90;;;;;;4974340;28;20453;-79
2022/07/01 09:00:20;;;;;;;0.60;0.60;;;14.00;99.90;;;;;;4974064;28;20453;-79
2022/07/01 09:02:55;;;;;;;0.30;0.20;;;14.00;99.90;;;;;;4974320;28;20457;-79
2022/07/01 09:05:24;;;;;;;0.30;0.30;;;14.00;99.90;;;;;;4974181;28;20437;-79
2022/07/01 09:07:57;;;;;;;0.30;0.27;;;14.00;99.90;;;;;;4973930;28;20438;-79
2022/07/01 09:10:24;;;;;;;0.30;0.30;;;14.10;99.90;;;;;;4974118;28;20833;-79
2022/07/01 09:12:51;;;;;;;0.30;0.20;;;14.00;99.90;;;;;;4974910;28;20464;-81
2022/07/01 09:15:25;;;;;;;0.30;0.30;;;14.10;99.90;;;;;;4974063;28;20457;-78
2022/07/01 09:17:52;;;;;;;0.40;0.30;;;14.00;99.90;;;;;;4977432;28;20473;-78
2022/07/01 09:20:31;;;;;;;0.30;0.20;;;14.00;99.90;;;;;;4977922;28;20882;-78
2022/07/01 09:23:02;;;;;;;0.50;0.40;;;14.00;99.90;;;;;;4977895;28;20425;-77
2022/07/01 09:25:31;;;;;;;0.73;0.43;;;13.90;99.90;;;;;;4977701;28;21027;-78
2022/07/01 09:28:19;;;;;;;0.40;0.30;;;13.90;99.90;;;;;;4977661;28;20643;-78
2022/07/01 09:30:47;;;;;;;0.40;0.37;;;13.90;99.90;;;;;;4973282;28;20968;-78
2022/07/01 09:33:16;;;;;;;0.30;0.20;;;13.90;99.90;;;;;;4977463;28;20438;-77
2022/07/01 09:35:46;;;;;;;0.30;0.30;;;13.90;99.90;;;;;;4977243;28;20469;-79
2022/07/01 09:38:14;;;;;;;0.30;0.30;;;14.00;99.90;;;;;;4977643;28;20422;-79
2022/07/01 09:40:55;;;;;;;0.30;0.30;;;14.00;99.90;;;;;;4977537;28;20452;-79
2022/07/01 09:43:24;;;;;;;0.30;0.30;;;14.00;99.90;;;;;;4977458;28;20453;-79
2022/07/01 09:45:52;;;;;;;0.30;0.30;;;14.00;99.90;;;;;;4977339;28;20797;-79
2022/07/01 09:48:20;;;;;;;0.30;0.30;;;14.00;99.90;;;;;;4977779;28;20484;-80
2022/07/01 09:50:49;;;;;;;0.30;0.20;;;14.00;99.90;;;;;;4977038;28;21136;-80
2022/07/01 09:53:16;;;;;;;0.40;0.30;;;14.10;99.90;;;;;;4977477;28;20441;-79
2022/07/01 09:55:43;;;;;;;0.40;0.30;;;14.10;99.90;;;;;;4977410;28;20477;-79
2022/07/01 09:58:10;;;;;;;0.30;0.30;;;14.20;99.90;;;;;;4977183;28;20453;-79
2022/07/01 10:00:38;;;;;;;0.30;0.30;;;14.30;99.90;;;;;;4976882;28;20833;-79
2022/07/01 10:03:06;;;;;;;0.50;0.30;;;14.40;99.90;;;;;;4977141;28;20477;-79
2022/07/01 10:05:39;;;;;;;0.40;0.30;;;14.40;99.90;;;;;;4976723;28;20480;-79
2022/07/01 10:08:22;;;;;;;0.40;0.30;;;14.40;99.90;;;;;;4977015;28;20469;-79
2022/07/01 10:10:58;;;;;;;0.37;0.27;;;14.40;99.90;;;;;;4977049;28;20425;-79
2022/07/01 10:13:27;;;;;;;0.30;0.30;;;14.40;99.90;;;;;;4976984;28;20437;-79
2022/07/01 10:15:56;;;;;;;0.40;0.30;;;14.40;99.90;;;;;;4976854;28;20466;-79
2022/07/01 10:18:26;;;;;;;0.40;0.30;;;14.50;99.90;;;;;;4976588;28;20432;-80
2022/07/01 10:20:53;;;;;;;0.40;0.30;;;14.60;99.90;;;;;;4976786;28;20456;-79
2022/07/01 10:23:23;;;;;;;1.50;0.30;;;14.70;99.90;;;;;;4976750;28;20477;-79
2022/07/01 10:25:51;;;;;;;0.30;0.30;;;14.80;99.90;;;;;;4976657;28;20469;-79
2022/07/01 10:28:26;;;;;;;0.30;0.20;;;15.00;99.90;;;;;;4976047;28;20950;-80
2022/07/01 10:30:55;;;;;;;0.77;0.33;;;15.10;99.90;;;;;;4976376;28;20434;-79
2022/07/01 10:33:39;;;;;;;0.60;0.43;;;15.10;99.90;;;;;;4976545;28;20458;-79
2022/07/01 10:36:08;;;;;;;0.30;0.30;;;15.10;99.90;;;;;;4976483;28;20472;-79
2022/07/01 10:38:58;;;;;;;0.30;0.30;;;15.20;99.90;;;;;;4976431;28;20477;-79
2022/07/01 10:41:26;;;;;;;0.30;0.30;;;15.30;99.90;;;;;;4976011;28;20449;-78
2022/07/01 10:43:55;;;;;;;0.50;0.40;;;15.50;99.90;;;;;;4976345;28;20806;-79
2022/07/01 10:46:40;;;;;;;0.50;0.30;;;15.80;99.90;;;;;;4975976;28;21005;-79
2022/07/01 10:49:07;;;;;;;0.40;0.30;;;16.00;99.90;;;;;;4976275;28;20500;-79
2022/07/01 10:51:47;;;;;;;0.40;0.30;;;16.20;99.90;;;;;;4975980;28;20511;-79
2022/07/01 10:54:49;;;;;;;0.93;0.40;;;16.30;99.90;;;;;;4975922;28;20425;-79
2022/07/01 10:57:30;;;;;;;0.40;0.40;;;16.40;99.90;;;;;;4975761;28;20551;-79
2022/07/01 11:00:34;;;;;;;0.60;0.30;;;16.50;99.90;;;;;;4976144;28;20496;-79
2022/07/01 11:03:16;;;;;;;0.30;0.30;;;16.70;99.90;;;;;;4976033;28;20540;-79
2022/07/01 11:05:45;;;;;;;0.50;0.50;;;16.80;99.90;;;;;;4975960;28;20465;-79
2022/07/01 11:08:13;;;;;;;0.40;0.30;;;16.90;99.90;;;;;;4975777;28;20479;-79
2022/07/01 11:10:42;;;;;;;0.40;0.30;;;16.70;99.90;;;;;;4975855;28;20473;-79
2022/07/01 11:13:12;;;;;;;0.30;0.30;;;16.60;99.90;;;;;;4975818;28;20460;-79
2022/07/01 11:15:39;;;;;;;0.40;0.40;;;16.60;99.90;;;;;;4975728;28;20472;-79
2022/07/01 11:18:06;;;;;;;0.40;0.30;;;16.40;99.90;;;;;;4975760;28;20935;-79
2022/07/01 11:20:33;;;;;;;0.30;0.30;;;16.30;99.90;;;;;;4975700;28;20448;-79
2022/07/01 11:23:01;;;;;;;0.60;0.40;;;16.50;99.90;;;;;;4975385;28;20945;-79
2022/07/01 11:25:28;;;;;;;0.30;0.27;;;16.50;99.90;;;;;;4975552;28;20462;-79
2022/07/01 11:27:56;;;;;;;0.43;0.33;;;16.50;99.90;;;;;;4975591;28;20458;-79
2022/07/01 11:30:24;;;;;;;0.40;0.30;;;16.40;99.90;;;;;;4975190;28;21015;-79
2022/07/01 11:32:52;;;;;;;0.40;0.40;;;16.40;99.90;;;;;;4975494;28;20460;-79
2022/07/01 11:40:54;;;;;;;0.60;0.30;;;16.00;99.90;;;;;;4975318;28;20514;-79
2022/07/01 11:43:25;;;;;;;0.50;0.50;;;16.00;99.90;;;;;;4975022;28;20959;-79
2022/07/01 11:45:52;;;;;;;0.30;0.30;;;15.90;99.90;;;;;;4975271;28;20472;-79
2022/07/01 11:48:37;;;;;;;0.47;0.30;;;16.00;99.90;;;;;;4976106;28;20449;-79
2022/07/01 11:51:09;;;;;;;0.60;0.33;;;16.10;99.90;;;;;;4975242;28;20422;-79
2022/07/01 11:53:36;;;;;;;0.43;0.40;;;16.20;99.90;;;;;;4975770;28;20433;-79
2022/07/01 11:56:03;;;;;;;0.30;0.30;;;16.30;99.90;;;;;;4975073;28;20837;-79
2022/07/01 11:58:45;;;;;;;0.30;0.30;;;16.50;99.90;;;;;;4975333;28;20457;-79
2022/07/01 12:01:12;;;;;;;0.40;0.33;;;16.60;99.90;;;;;;4975003;28;20449;-79
2022/07/01 12:03:38;;;;;;;0.40;0.30;;;16.40;99.90;;;;;;4975228;28;20441;-79
2022/07/01 12:06:06;;;;;;;0.70;0.30;;;16.70;99.90;;;;;;4974887;28;20470;-79
2022/07/01 12:08:33;;;;;;;0.50;0.40;;;16.80;99.90;;;;;;4974442;28;21017;-78
2022/07/01 12:11:00;;;;;;;0.30;0.30;;;16.90;99.90;;;;;;4974580;28;20465;-79
2022/07/01 12:13:28;;;;;;;0.40;0.30;;;16.90;99.90;;;;;;4974852;28;20460;-79
2022/07/01 12:16:07;;;;;;;0.30;0.30;;;16.90;99.90;;;;;;4974426;28;20890;-79
2022/07/01 12:18:34;;;;;;;0.30;0.30;;;16.90;99.90;;;;;;4974520;28;20913;-79
2022/07/01 12:21:02;;;;;;;0.37;0.30;;;16.90;99.90;;;;;;4974793;28;20445;-79
2022/07/01 12:23:29;;;;;;;0.30;0.30;;;16.80;99.90;;;;;;4974693;28;20454;-79
2022/07/01 12:25:56;;;;;;;0.40;0.40;;;16.80;99.90;;;;;;4974637;28;20477;-79
2022/07/01 12:28:30;;;;;;;0.50;0.50;;;16.90;99.90;;;;;;4974675;28;20457;-79
2022/07/01 12:31:06;;;;;;;0.40;0.40;;;16.90;99.90;;;;;;4974494;28;20480;-78
2022/07/01 12:33:33;;;;;;;0.40;0.40;;;17.00;99.90;;;;;;4974662;28;20429;-78
2022/07/01 12:36:02;;;;;;;0.40;0.30;;;17.00;99.90;;;;;;4974454;28;20477;-78
2022/07/01 12:38:29;;;;;;;0.40;0.30;;;17.10;99.90;;;;;;4974487;28;20453;-78
2022/07/01 12:40:56;;;;;;;0.40;0.40;;;17.20;99.90;;;;;;4974690;28;20453;-78
2022/07/01 12:43:29;;;;;;;0.30;0.30;;;17.40;99.90;;;;;;4974126;28;20821;-78
2022/07/01 12:46:00;;;;;;;1.03;0.40;;;17.50;99.90;;;;;;4974757;28;20485;-78
2022/07/01 12:48:28;;;;;;;0.50;0.40;;;17.60;99.90;;;;;;4974572;28;20803;-78
2022/07/01 12:50:57;;;;;;;0.50;0.30;;;17.70;99.90;;;;;;4976224;28;20496;-78
2022/07/01 12:53:25;;;;;;;0.40;0.30;;;17.70;99.90;;;;;;4978123;28;20968;-78
2022/07/01 12:55:54;;;;;;;0.30;0.30;;;17.80;99.90;;;;;;4978158;28;20473;-79
2022/07/01 12:58:22;;;;;;;0.37;0.37;;;17.90;99.90;;;;;;4978583;28;20460;-79
2022/07/01 13:00:52;;;;;;;0.40;0.40;;;18.00;99.90;;;;;;4978219;28;20795;-79
2022/07/01 13:03:21;;;;;;;0.40;0.40;;;17.90;99.90;;;;;;4978180;28;20457;-79